Time;durP1;ratioP1;P1;durP2;ratioP2;P2;SDS_P1;SDS_P2;PMS_P1;PMS_P2;Temp;Humidity;BMP_temperature;BMP_pressure;BME280_temperature;BME280_humidity;BME280_pressure;Samples;Min_cycle;Max_cycle;Signal;HPM_P1;HPM_P2
2023/04/17 00:02:09;;;;;;;3.25;3.05;;;;;;;;;;5077857;28;20451;-19
2023/04/17 00:04:39;;;;;;;3.58;3.38;;;;;;;;;;5077660;28;20044;-22
2023/04/17 00:07:06;;;;;;;3.42;3.22;;;;;;;;;;5078119;28;20028;-19
2023/04/17 00:09:32;;;;;;;3.47;3.28;;;;;;;;;;5077738;28;20032;-17
2023/04/17 00:11:58;;;;;;;3.42;3.22;;;;;;;;;;5077651;28;20031;-20
2023/04/17 00:14:24;;;;;;;3.85;3.55;;;;;;;;;;5077693;28;20029;-18
2023/04/17 00:16:51;;;;;;;3.60;3.40;;;;;;;;;;5077530;28;20029;-17
2023/04/17 00:19:17;;;;;;;3.70;3.50;;;;;;;;;;5077590;28;20031;-17
2023/04/17 00:21:43;;;;;;;3.47;3.28;;;;;;;;;;5078059;28;20448;-19
2023/04/17 00:24:11;;;;;;;3.80;3.60;;;;;;;;;;5077354;28;20055;-22
2023/04/17 00:26:38;;;;;;;3.17;2.97;;;;;;;;;;5077730;28;20033;-19
2023/04/17 00:29:04;;;;;;;3.88;3.67;;;;;;;;;;5077635;28;20032;-17
2023/04/17 00:31:30;;;;;;;3.20;3.00;;;;;;;;;;5077634;28;20086;-21
2023/04/17 00:33:57;;;;;;;3.83;3.63;;;;;;;;;;5077260;28;20371;-20
2023/04/17 00:36:24;;;;;;;3.85;3.65;;;;;;;;;;5077243;28;20052;-21
2023/04/17 00:38:50;;;;;;;3.50;3.30;;;;;;;;;;5075828;28;20196;-19
2023/04/17 00:41:16;;;;;;;4.10;3.80;;;;;;;;;;5077442;28;20020;-19
2023/04/17 00:43:42;;;;;;;4.03;3.83;;;;;;;;;;5077030;28;20028;-20
2023/04/17 00:46:09;;;;;;;3.88;3.67;;;;;;;;;;5077080;28;20031;-20
2023/04/17 00:48:36;;;;;;;3.70;3.47;;;;;;;;;;5076995;28;20036;-24
2023/04/17 00:51:03;;;;;;;3.65;3.45;;;;;;;;;;5077260;28;20025;-22
2023/04/17 00:53:30;;;;;;;3.70;3.50;;;;;;;;;;5076877;28;20029;-20
2023/04/17 00:55:57;;;;;;;3.78;3.58;;;;;;;;;;5077372;28;20424;-25
2023/04/17 00:58:23;;;;;;;3.72;3.53;;;;;;;;;;5077133;28;20020;-22
2023/04/17 01:00:49;;;;;;;4.28;4.07;;;;;;;;;;5076788;28;20103;-20
2023/04/17 01:03:15;;;;;;;3.58;3.38;;;;;;;;;;5076686;28;20051;-20
2023/04/17 01:05:43;;;;;;;3.58;3.38;;;;;;;;;;5076732;28;20028;-22
2023/04/17 01:08:09;;;;;;;3.00;2.83;;;;;;;;;;5076992;28;20352;-19
2023/04/17 01:10:35;;;;;;;3.47;3.28;;;;;;;;;;5059017;28;20020;-19
2023/04/17 01:13:02;;;;;;;4.10;3.90;;;;;;;;;;5076545;28;20044;-18
2023/04/17 01:15:28;;;;;;;3.72;3.53;;;;;;;;;;5076545;28;20078;-22
2023/04/17 01:17:55;;;;;;;3.70;3.50;;;;;;;;;;5076685;28;20041;-19
2023/04/17 01:20:21;;;;;;;4.10;3.90;;;;;;;;;;5076748;28;20025;-22
2023/04/17 01:22:53;;;;;;;3.70;3.50;;;;;;;;;;5076616;28;20148;-19
2023/04/17 01:25:19;;;;;;;3.67;3.47;;;;;;;;;;5076357;28;20021;-19
2023/04/17 01:27:46;;;;;;;3.95;3.75;;;;;;;;;;5076576;28;20032;-20
2023/04/17 01:30:12;;;;;;;3.60;3.40;;;;;;;;;;5076342;28;20359;-18
2023/04/17 01:32:38;;;;;;;3.30;3.10;;;;;;;;;;5076167;28;20090;-23
2023/04/17 01:35:04;;;;;;;2.95;2.85;;;;;;;;;;5076182;28;20024;-21
2023/04/17 01:37:30;;;;;;;3.90;3.60;;;;;;;;;;5076581;28;20054;-24
2023/04/17 01:39:58;;;;;;;3.40;3.20;;;;;;;;;;5076393;28;20325;-26
2023/04/17 01:42:24;;;;;;;3.40;3.20;;;;;;;;;;5075980;28;20379;-23
2023/04/17 01:44:50;;;;;;;3.58;3.38;;;;;;;;;;5075983;28;20032;-19
2023/04/17 01:47:16;;;;;;;2.88;2.78;;;;;;;;;;5075882;28;20111;-20
2023/04/17 01:49:42;;;;;;;3.58;3.38;;;;;;;;;;5075750;28;20033;-19
2023/04/17 01:52:09;;;;;;;3.42;3.22;;;;;;;;;;5058157;28;20105;-20
2023/04/17 01:54:35;;;;;;;3.85;3.65;;;;;;;;;;5076069;28;20032;-22
2023/04/17 01:57:01;;;;;;;4.25;4.05;;;;;;;;;;5058291;28;20087;-20
2023/04/17 01:59:27;;;;;;;3.67;3.47;;;;;;;;;;5075698;28;20052;-19
2023/04/17 02:01:55;;;;;;;3.20;3.08;;;;;;;;;;5075504;28;20036;-22
2023/04/17 02:04:21;;;;;;;4.30;4.10;;;;;;;;;;5075445;28;20056;-19
2023/04/17 02:06:48;;;;;;;3.67;3.47;;;;;;;;;;5075531;28;20036;-19
2023/04/17 02:09:14;;;;;;;3.65;3.45;;;;;;;;;;5075417;28;20119;-19
2023/04/17 02:11:40;;;;;;;3.78;3.58;;;;;;;;;;5075429;28;20025;-20
2023/04/17 02:14:06;;;;;;;3.83;3.63;;;;;;;;;;5075357;28;20384;-19
2023/04/17 02:16:33;;;;;;;3.90;3.70;;;;;;;;;;5075285;28;20037;-20
2023/04/17 02:18:59;;;;;;;3.75;3.55;;;;;;;;;;5075580;28;20020;-20
2023/04/17 02:21:26;;;;;;;3.53;3.33;;;;;;;;;;5075261;28;20064;-20
2023/04/17 02:23:52;;;;;;;3.03;2.92;;;;;;;;;;5075091;28;20033;-21
2023/04/17 02:26:18;;;;;;;3.10;3.00;;;;;;;;;;5075700;28;20021;-20
2023/04/17 02:28:45;;;;;;;3.22;3.03;;;;;;;;;;5075931;28;20024;-20
2023/04/17 02:31:11;;;;;;;3.50;3.30;;;;;;;;;;5075128;28;20031;-20
2023/04/17 02:33:38;;;;;;;3.97;3.78;;;;;;;;;;5074972;28;20032;-19
2023/04/17 02:36:08;;;;;;;4.13;3.92;;;;;;;;;;5075197;28;20096;-22
2023/04/17 02:38:34;;;;;;;3.78;3.58;;;;;;;;;;5075251;28;20052;-18
2023/04/17 02:41:00;;;;;;;4.28;4.07;;;;;;;;;;5057313;28;20479;-17
2023/04/17 02:43:26;;;;;;;3.38;3.17;;;;;;;;;;5074847;28;20029;-21
2023/04/17 02:45:52;;;;;;;3.60;3.40;;;;;;;;;;5075138;28;20047;-20
2023/04/17 02:48:18;;;;;;;3.80;3.60;;;;;;;;;;5075126;28;20243;-19
2023/04/17 02:50:44;;;;;;;3.45;3.33;;;;;;;;;;5074796;28;20032;-23
2023/04/17 02:53:11;;;;;;;4.18;3.88;;;;;;;;;;5074938;28;20021;-20
2023/04/17 02:55:37;;;;;;;3.47;3.28;;;;;;;;;;5074987;28;20036;-20
2023/04/17 02:58:03;;;;;;;3.70;3.50;;;;;;;;;;5074608;28;20025;-19
2023/04/17 03:00:29;;;;;;;3.00;2.90;;;;;;;;;;5074135;28;20028;-18
2023/04/17 03:02:56;;;;;;;3.50;3.30;;;;;;;;;;5074271;28;20045;-19
2023/04/17 03:05:22;;;;;;;3.55;3.35;;;;;;;;;;5057017;28;20025;-26
2023/04/17 03:07:49;;;;;;;3.65;3.45;;;;;;;;;;5074613;28;20408;-19
2023/04/17 03:10:15;;;;;;;3.47;3.28;;;;;;;;;;5074851;28;20051;-19
2023/04/17 03:12:41;;;;;;;3.70;3.50;;;;;;;;;;5074763;28;20025;-18
2023/04/17 03:15:08;;;;;;;2.78;2.67;;;;;;;;;;5074859;28;20382;-20
2023/04/17 03:17:34;;;;;;;3.40;3.20;;;;;;;;;;5074741;28;20028;-20
2023/04/17 03:20:00;;;;;;;3.80;3.60;;;;;;;;;;5075003;28;20439;-20
2023/04/17 03:22:26;;;;;;;3.60;3.40;;;;;;;;;;5074751;28;20371;-25
2023/04/17 03:24:52;;;;;;;3.72;3.53;;;;;;;;;;5074477;28;20020;-19
2023/04/17 03:27:23;;;;;;;3.22;3.03;;;;;;;;;;5074476;28;20050;-19
2023/04/17 03:29:53;;;;;;;3.08;2.97;;;;;;;;;;5074487;28;20036;-17
2023/04/17 03:32:19;;;;;;;3.47;3.28;;;;;;;;;;5074325;28;20024;-22
2023/04/17 03:34:46;;;;;;;4.05;3.85;;;;;;;;;;5074352;28;20024;-21
2023/04/17 03:37:12;;;;;;;4.03;3.83;;;;;;;;;;5074181;28;20025;-23
2023/04/17 03:39:38;;;;;;;3.60;3.40;;;;;;;;;;5074288;28;20025;-20
2023/04/17 03:42:04;;;;;;;3.78;3.58;;;;;;;;;;5074404;28;20032;-23
2023/04/17 03:44:31;;;;;;;3.50;3.30;;;;;;;;;;5074175;28;20037;-19
2023/04/17 03:46:57;;;;;;;4.47;4.18;;;;;;;;;;5074455;28;20393;-18
2023/04/17 03:49:23;;;;;;;3.63;3.42;;;;;;;;;;5074462;28;20028;-19
2023/04/17 03:51:49;;;;;;;3.78;3.58;;;;;;;;;;5074035;28;20025;-20
2023/04/17 03:54:15;;;;;;;3.63;3.42;;;;;;;;;;5074378;28;20158;-18
2023/04/17 03:56:41;;;;;;;3.80;3.60;;;;;;;;;;5074013;28;20036;-20
2023/04/17 03:59:07;;;;;;;4.40;3.63;;;;;;;;;;5074322;28;20024;-20
2023/04/17 04:01:37;;;;;;;3.75;3.55;;;;;;;;;;5074074;28;20129;-19
2023/04/17 04:04:03;;;;;;;3.50;3.30;;;;;;;;;;5073841;28;20045;-17
2023/04/17 04:06:29;;;;;;;3.97;3.78;;;;;;;;;;5074263;28;20111;-26
2023/04/17 04:08:56;;;;;;;3.97;3.78;;;;;;;;;;5073946;28;20028;-19
2023/04/17 04:11:22;;;;;;;3.75;3.50;;;;;;;;;;5074389;28;20099;-18
2023/04/17 04:13:48;;;;;;;3.97;3.72;;;;;;;;;;5077276;28;20359;-17
2023/04/17 04:16:14;;;;;;;4.40;4.10;;;;;;;;;;5077580;28;20032;-22
2023/04/17 04:18:42;;;;;;;5.07;4.05;;;;;;;;;;5077264;28;20052;-21
2023/04/17 04:21:09;;;;;;;5.13;4.25;;;;;;;;;;5077618;28;20356;-17
2023/04/17 04:23:38;;;;;;;4.38;3.83;;;;;;;;;;5077576;28;20024;-30
2023/04/17 04:26:04;;;;;;;4.68;4.05;;;;;;;;;;5077339;28;20031;-24
2023/04/17 04:28:30;;;;;;;4.35;4.05;;;;;;;;;;5077048;28;20033;-22
2023/04/17 04:30:57;;;;;;;4.97;4.63;;;;;;;;;;5077231;28;20025;-19
2023/04/17 04:33:23;;;;;;;5.38;4.50;;;;;;;;;;5076876;28;20048;-22
2023/04/17 04:35:55;;;;;;;7.32;4.30;;;;;;;;;;5077012;28;20471;-24
2023/04/17 04:38:28;;;;;;;5.03;4.63;;;;;;;;;;5077078;28;20039;-19
2023/04/17 04:41:00;;;;;;;9.35;4.45;;;;;;;;;;5077233;28;20356;-19
2023/04/17 04:43:27;;;;;;;7.65;4.60;;;;;;;;;;5077001;28;20079;-21
2023/04/17 04:45:54;;;;;;;5.20;4.55;;;;;;;;;;5076921;28;20032;-19
2023/04/17 04:48:20;;;;;;;8.48;5.18;;;;;;;;;;5076671;28;20052;-28
2023/04/17 04:50:46;;;;;;;5.07;4.45;;;;;;;;;;5076540;28;20024;-20
2023/04/17 04:53:12;;;;;;;11.98;4.75;;;;;;;;;;5076404;28;20017;-21
2023/04/17 04:55:38;;;;;;;4.47;4.07;;;;;;;;;;5076377;28;20463;-22
2023/04/17 04:58:05;;;;;;;7.25;4.18;;;;;;;;;;5076502;28;20332;-17
2023/04/17 05:00:31;;;;;;;12.30;4.63;;;;;;;;;;5076334;28;20024;-18
2023/04/17 05:02:57;;;;;;;12.27;4.90;;;;;;;;;;5076161;28;20107;-18
2023/04/17 05:05:24;;;;;;;9.88;4.82;;;;;;;;;;5076109;28;20024;-19
2023/04/17 05:07:53;;;;;;;3.55;3.25;;;;;;;;;;5076066;28;20107;-20
2023/04/17 05:10:19;;;;;;;4.68;4.30;;;;;;;;;;5076417;28;20355;-21
2023/04/17 05:12:46;;;;;;;8.10;3.97;;;;;;;;;;5076053;28;20025;-20
2023/04/17 05:15:12;;;;;;;5.60;4.45;;;;;;;;;;5075982;28;20119;-20
2023/04/17 05:17:38;;;;;;;3.90;3.60;;;;;;;;;;5076215;28;20336;-19
2023/04/17 05:20:08;;;;;;;16.27;4.45;;;;;;;;;;5058405;28;20016;-18
2023/04/17 05:22:35;;;;;;;17.15;6.55;;;;;;;;;;5076432;28;20132;-21
2023/04/17 05:25:01;;;;;;;11.15;5.25;;;;;;;;;;5075542;28;20036;-25
2023/04/17 05:27:27;;;;;;;7.20;4.40;;;;;;;;;;5076256;28;20025;-23
2023/04/17 05:29:53;;;;;;;6.70;4.75;;;;;;;;;;5075759;28;20121;-20
2023/04/17 05:32:19;;;;;;;9.23;4.47;;;;;;;;;;5075905;28;20351;-21
2023/04/17 05:34:45;;;;;;;8.48;4.88;;;;;;;;;;5058282;28;20024;-22
2023/04/17 05:37:12;;;;;;;10.43;4.35;;;;;;;;;;5075595;28;20089;-24
2023/04/17 05:39:39;;;;;;;7.53;4.25;;;;;;;;;;5076208;28;20101;-20
2023/04/17 05:42:05;;;;;;;5.60;4.68;;;;;;;;;;5075596;28;20020;-19
2023/04/17 05:44:31;;;;;;;11.13;4.80;;;;;;;;;;5075621;28;20024;-20
2023/04/17 05:47:00;;;;;;;6.13;3.97;;;;;;;;;;5075516;28;20033;-22
2023/04/17 05:49:27;;;;;;;5.88;4.28;;;;;;;;;;5075648;28;20402;-20
2023/04/17 05:51:53;;;;;;;5.63;4.97;;;;;;;;;;5075503;28;20025;-21
2023/04/17 05:54:19;;;;;;;10.27;4.88;;;;;;;;;;5075495;28;20032;-22
2023/04/17 05:56:46;;;;;;;8.57;4.30;;;;;;;;;;5075890;28;20025;-27
2023/04/17 05:59:12;;;;;;;6.20;4.28;;;;;;;;;;5076161;28;20024;-24
2023/04/17 06:04:14;;;;;;;16.52;4.78;;;;;;;;;;4720251;26;20061;-29
2023/04/17 06:06:40;;;;;;;11.15;4.07;;;;;;;;;;5015757;28;20133;-32
2023/04/17 06:09:08;;;;;;;12.18;5.25;;;;;;;;;;5016396;28;20025;-28
2023/04/17 06:11:34;;;;;;;11.25;4.57;;;;;;;;;;5015700;28;20175;-31
2023/04/17 06:14:00;;;;;;;10.90;5.88;;;;;;;;;;5015811;28;20030;-24
2023/04/17 06:16:26;;;;;;;11.50;4.93;;;;;;;;;;4998308;28;20030;-23
2023/04/17 06:18:53;;;;;;;11.95;5.05;;;;;;;;;;5015623;28;20061;-25
2023/04/17 06:21:20;;;;;;;6.47;5.10;;;;;;;;;;5015879;28;20033;-27
2023/04/17 06:23:46;;;;;;;10.10;4.82;;;;;;;;;;5015487;28;20076;-26
2023/04/17 06:26:12;;;;;;;11.27;4.78;;;;;;;;;;5015579;28;20026;-26
2023/04/17 06:28:38;;;;;;;13.13;5.45;;;;;;;;;;5015606;28;20521;-27
2023/04/17 06:31:04;;;;;;;9.10;5.50;;;;;;;;;;5015712;28;20048;-29
2023/04/17 06:33:30;;;;;;;8.93;4.60;;;;;;;;;;5015402;28;20364;-27
2023/04/17 06:35:56;;;;;;;15.35;4.97;;;;;;;;;;5015110;28;20033;-29
2023/04/17 06:38:22;;;;;;;14.18;5.88;;;;;;;;;;5015179;28;20022;-28
2023/04/17 06:40:49;;;;;;;7.60;5.35;;;;;;;;;;5015207;28;20029;-30
2023/04/17 06:43:15;;;;;;;9.45;5.15;;;;;;;;;;5015507;28;20401;-25
2023/04/17 06:45:41;;;;;;;17.67;5.47;;;;;;;;;;4997887;28;20342;-28
2023/04/17 06:48:08;;;;;;;11.82;4.55;;;;;;;;;;4997421;28;20039;-25
2023/04/17 06:50:34;;;;;;;15.48;4.90;;;;;;;;;;5014877;28;20168;-25
2023/04/17 06:53:00;;;;;;;8.85;4.57;;;;;;;;;;5014581;28;20025;-25
2023/04/17 06:55:27;;;;;;;13.35;4.68;;;;;;;;;;5014938;28;20033;-26
2023/04/17 06:57:53;;;;;;;11.00;5.55;;;;;;;;;;5015138;28;20040;-26
2023/04/17 07:00:20;;;;;;;18.05;5.60;;;;;;;;;;5014838;28;20030;-29
2023/04/17 07:02:46;;;;;;;11.07;4.85;;;;;;;;;;5014638;28;20116;-24
2023/04/17 07:05:12;;;;;;;10.18;4.93;;;;;;;;;;5015040;28;20121;-27
2023/04/17 07:07:39;;;;;;;4.50;4.18;;;;;;;;;;5014796;28;20535;-28
2023/04/17 07:10:06;;;;;;;9.73;4.40;;;;;;;;;;5015093;28;20369;-26
2023/04/17 07:12:32;;;;;;;5.85;4.68;;;;;;;;;;5014682;28;20030;-27
2023/04/17 07:14:59;;;;;;;6.65;4.53;;;;;;;;;;4997355;28;20411;-27
2023/04/17 07:17:26;;;;;;;6.68;4.97;;;;;;;;;;4997354;28;20025;-25
2023/04/17 07:19:52;;;;;;;4.80;3.90;;;;;;;;;;5014740;28;20427;-28
2023/04/17 07:22:18;;;;;;;5.95;4.60;;;;;;;;;;4997180;28;20026;-29
2023/04/17 07:24:45;;;;;;;11.95;5.38;;;;;;;;;;5014887;28;20026;-25
2023/04/17 07:27:11;;;;;;;9.43;4.78;;;;;;;;;;5014756;28;20044;-25
2023/04/17 07:29:37;;;;;;;15.95;5.22;;;;;;;;;;5014597;28;20029;-26
2023/04/17 07:32:05;;;;;;;11.40;6.03;;;;;;;;;;4996932;28;20022;-27
2023/04/17 07:34:33;;;;;;;11.65;4.60;;;;;;;;;;5014488;28;20465;-26
2023/04/17 07:37:00;;;;;;;9.63;4.50;;;;;;;;;;5014053;28;20041;-29
2023/04/17 07:39:29;;;;;;;16.67;4.65;;;;;;;;;;4996814;28;20088;-28
2023/04/17 07:41:55;;;;;;;12.18;4.70;;;;;;;;;;5014453;28;20054;-24
2023/04/17 07:44:21;;;;;;;17.25;4.93;;;;;;;;;;4996890;28;20030;-29
2023/04/17 07:46:47;;;;;;;11.65;5.53;;;;;;;;;;5014661;28;20026;-26
2023/04/17 07:49:14;;;;;;;10.65;5.53;;;;;;;;;;5018653;28;20353;-31
2023/04/17 07:51:41;;;;;;;8.00;5.03;;;;;;;;;;5018303;28;20033;-25
2023/04/17 07:54:07;;;;;;;12.82;4.70;;;;;;;;;;5018006;28;20049;-28
2023/04/17 07:56:33;;;;;;;12.13;6.22;;;;;;;;;;5017864;28;20022;-27
2023/04/17 07:59:00;;;;;;;8.90;5.97;;;;;;;;;;5018204;28;20387;-28
2023/04/17 08:01:26;;;;;;;8.85;5.03;;;;;;;;;;5017894;28;20029;-27
2023/04/17 08:03:54;;;;;;;12.48;5.38;;;;;;;;;;5017613;28;20053;-27
2023/04/17 08:06:20;;;;;;;8.52;4.43;;;;;;;;;;5017733;28;20045;-28
2023/04/17 08:08:46;;;;;;;11.55;4.97;;;;;;;;;;5017642;28;20026;-25
2023/04/17 08:11:15;;;;;;;12.93;5.25;;;;;;;;;;5017641;28;20026;-26
2023/04/17 08:13:42;;;;;;;14.30;5.20;;;;;;;;;;5000194;28;20029;-28
2023/04/17 08:16:08;;;;;;;16.25;5.25;;;;;;;;;;5017964;28;20395;-27
2023/04/17 08:18:36;;;;;;;14.15;4.80;;;;;;;;;;5000904;28;20026;-28
2023/04/17 08:21:03;;;;;;;13.98;5.25;;;;;;;;;;5000402;28;20018;-26
2023/04/17 08:23:29;;;;;;;7.50;4.35;;;;;;;;;;5017677;28;20019;-28
2023/04/17 08:25:55;;;;;;;9.25;4.88;;;;;;;;;;5017804;28;20022;-25
2023/04/17 08:28:21;;;;;;;12.25;4.80;;;;;;;;;;5017701;28;20464;-28
2023/04/17 08:30:47;;;;;;;11.13;4.43;;;;;;;;;;5017405;28;20037;-28
2023/04/17 08:33:15;;;;;;;8.13;4.40;;;;;;;;;;4999983;28;20033;-28
2023/04/17 08:35:41;;;;;;;8.90;4.28;;;;;;;;;;5017328;28;20421;-28
2023/04/17 08:38:09;;;;;;;10.60;4.85;;;;;;;;;;5000909;28;20357;-26
2023/04/17 08:40:40;;;;;;;11.32;4.97;;;;;;;;;;4999828;28;20083;-28
2023/04/17 08:43:06;;;;;;;;;;;;;;;;;;5000445;28;20095;-28
2023/04/17 08:45:34;;;;;;;18.55;5.20;;;;;;;;;;5017234;28;20395;-26
2023/04/17 08:48:00;;;;;;;7.55;5.65;;;;;;;;;;5017268;28;20152;-29
2023/04/17 08:50:26;;;;;;;11.77;4.78;;;;;;;;;;4999889;28;20030;-27
2023/04/17 08:52:52;;;;;;;6.03;4.80;;;;;;;;;;4999715;28;20453;-25
2023/04/17 08:55:23;;;;;;;11.52;5.07;;;;;;;;;;5017263;28;20030;-24
2023/04/17 08:57:49;;;;;;;;;;;;;;;;;;5017861;28;20334;-25
2023/04/17 09:00:23;;;;;;;11.43;5.40;;;;;;;;;;5015162;28;19909;-26
2023/04/17 09:02:53;;;;;;;6.07;4.40;;;;;;;;;;5016752;28;20050;-28
2023/04/17 09:05:20;;;;;;;11.23;4.83;;;;;;;;;;5017294;28;20037;-28
2023/04/17 09:07:47;;;;;;;11.52;4.97;;;;;;;;;;5016924;28;20021;-27
2023/04/17 09:10:13;;;;;;;15.15;5.25;;;;;;;;;;5017112;28;20037;-26
2023/04/17 09:12:40;;;;;;;7.72;4.88;;;;;;;;;;4999464;28;20460;-26
2023/04/17 09:15:16;;;;;;;12.27;4.90;;;;;;;;;;5016825;28;20356;-23
2023/04/17 09:17:42;;;;;;;8.05;4.65;;;;;;;;;;5016757;28;20026;-26
2023/04/17 09:20:10;;;;;;;7.13;4.97;;;;;;;;;;5016648;28;20079;-29
2023/04/17 09:22:39;;;;;;;15.05;4.82;;;;;;;;;;5016448;28;20452;-29
2023/04/17 09:25:16;;;;;;;10.65;4.93;;;;;;;;;;5016741;28;20386;-25
2023/04/17 09:27:42;;;;;;;6.25;4.45;;;;;;;;;;5016564;28;20411;-28
2023/04/17 09:30:08;;;;;;;6.53;4.85;;;;;;;;;;4999058;28;20022;-25
2023/04/17 09:32:34;;;;;;;15.32;4.68;;;;;;;;;;5016116;28;20060;-24
2023/04/17 09:35:02;;;;;;;10.30;4.85;;;;;;;;;;5016094;28;20025;-25
2023/04/17 09:37:50;;;;;;;6.88;4.78;;;;;;;;;;5015855;28;20462;-24
2023/04/17 09:40:17;;;;;;;9.48;5.28;;;;;;;;;;5016177;28;20362;-26
2023/04/17 09:42:55;;;;;;;8.02;4.97;;;;;;;;;;4998785;28;20022;-28
2023/04/17 09:45:23;;;;;;;5.60;5.03;;;;;;;;;;5016421;28;20370;-27
2023/04/17 09:47:51;;;;;;;9.30;5.03;;;;;;;;;;5016014;28;20021;-27
2023/04/17 09:50:21;;;;;;;4.72;4.05;;;;;;;;;;5016095;28;20026;-27
2023/04/17 09:52:51;;;;;;;13.60;5.07;;;;;;;;;;5016183;28;20025;-29
2023/04/17 09:55:21;;;;;;;11.45;4.63;;;;;;;;;;4998338;28;20498;-25
2023/04/17 09:57:51;;;;;;;8.43;4.35;;;;;;;;;;5015637;28;20117;-28
2023/04/17 10:00:19;;;;;;;18.63;5.72;;;;;;;;;;5015682;28;20329;-26
2023/04/17 10:02:47;;;;;;;15.98;5.35;;;;;;;;;;4998039;28;20357;-29
2023/04/17 10:05:13;;;;;;;9.32;4.78;;;;;;;;;;5015279;28;20088;-25
2023/04/17 10:07:39;;;;;;;20.42;5.20;;;;;;;;;;5015558;28;20033;-26
2023/04/17 10:10:08;;;;;;;11.55;5.63;;;;;;;;;;5015062;28;20036;-28
2023/04/17 10:12:37;;;;;;;20.65;5.60;;;;;;;;;;5015622;28;20431;-25
2023/04/17 10:15:06;;;;;;;12.60;5.30;;;;;;;;;;5015265;28;20030;-24
2023/04/17 10:17:33;;;;;;;9.38;5.43;;;;;;;;;;5015140;28;20356;-26
2023/04/17 10:20:28;;;;;;;15.20;5.90;;;;;;;;;;5015563;28;20030;-25
2023/04/17 10:22:55;;;;;;;30.58;5.57;;;;;;;;;;4994673;28;20061;-27
2023/04/17 10:25:24;;;;;;;23.35;6.15;;;;;;;;;;5015300;28;20029;-29
2023/04/17 10:27:57;;;;;;;19.75;6.75;;;;;;;;;;5015278;28;20355;-25
2023/04/17 10:30:25;;;;;;;28.52;6.50;;;;;;;;;;5015128;28;20476;-27
2023/04/17 10:33:10;;;;;;;24.00;6.03;;;;;;;;;;4997687;28;20037;-26
2023/04/17 10:35:36;;;;;;;19.48;5.93;;;;;;;;;;5015268;28;20065;-25
2023/04/17 10:38:04;;;;;;;19.05;5.90;;;;;;;;;;5015019;28;20426;-28
2023/04/17 10:40:31;;;;;;;17.88;4.70;;;;;;;;;;5014826;28;20022;-27
2023/04/17 10:43:03;;;;;;;17.10;6.00;;;;;;;;;;5014997;28;20022;-24
2023/04/17 10:45:48;;;;;;;14.27;5.53;;;;;;;;;;4997394;28;20486;-25
2023/04/17 10:48:34;;;;;;;8.73;5.20;;;;;;;;;;5015255;28;20044;-25
2023/04/17 10:51:01;;;;;;;6.85;4.82;;;;;;;;;;4997534;28;20036;-25
2023/04/17 10:53:39;;;;;;;14.68;5.10;;;;;;;;;;5014741;28;20467;-28
2023/04/17 10:56:05;;;;;;;12.73;4.80;;;;;;;;;;4997385;28;20040;-25
2023/04/17 10:58:32;;;;;;;9.93;4.78;;;;;;;;;;5014825;28;20132;-26
2023/04/17 11:01:02;;;;;;;11.65;5.03;;;;;;;;;;5014728;28;20018;-27
2023/04/17 11:03:30;;;;;;;15.02;5.63;;;;;;;;;;5014526;28;20050;-28
2023/04/17 11:05:58;;;;;;;12.10;5.82;;;;;;;;;;5014959;28;20021;-25
2023/04/17 11:08:24;;;;;;;13.73;4.60;;;;;;;;;;4997414;28;20386;-26
2023/04/17 11:10:57;;;;;;;16.08;5.03;;;;;;;;;;4997364;28;20036;-25
2023/04/17 11:13:23;;;;;;;14.20;6.20;;;;;;;;;;5014662;28;20364;-25
2023/04/17 11:15:50;;;;;;;14.10;5.60;;;;;;;;;;5014949;28;20065;-28
2023/04/17 11:18:17;;;;;;;11.95;5.22;;;;;;;;;;5014465;28;20026;-24
2023/04/17 11:20:44;;;;;;;19.25;5.53;;;;;;;;;;5014825;28;20022;-25
2023/04/17 11:23:10;;;;;;;23.35;7.25;;;;;;;;;;5013799;28;20112;-27
2023/04/17 11:25:37;;;;;;;17.23;6.07;;;;;;;;;;5014505;28;20021;-26
2023/04/17 11:28:05;;;;;;;19.40;5.28;;;;;;;;;;5014462;28;20018;-27
2023/04/17 11:30:32;;;;;;;20.30;6.70;;;;;;;;;;5014390;28;20026;-26
2023/04/17 11:32:59;;;;;;;17.33;5.40;;;;;;;;;;5014551;28;20049;-28
2023/04/17 11:35:32;;;;;;;14.63;5.85;;;;;;;;;;5014207;28;20030;-24
2023/04/17 11:38:05;;;;;;;8.57;4.63;;;;;;;;;;5014094;28;20026;-28
2023/04/17 11:40:31;;;;;;;6.18;4.88;;;;;;;;;;5014110;28;20057;-27
2023/04/17 11:43:02;;;;;;;11.15;4.95;;;;;;;;;;5014096;28;20109;-26
2023/04/17 11:45:33;;;;;;;14.30;5.60;;;;;;;;;;5014119;28;20014;-28
2023/04/17 11:47:59;;;;;;;13.55;6.18;;;;;;;;;;5014608;28;20033;-25
2023/04/17 11:50:32;;;;;;;11.13;5.55;;;;;;;;;;5014562;28;20022;-25
2023/04/17 11:53:02;;;;;;;8.40;5.07;;;;;;;;;;5014440;28;20080;-28
2023/04/17 11:55:32;;;;;;;10.93;5.22;;;;;;;;;;5014121;28;20030;-26
2023/04/17 11:57:59;;;;;;;11.60;5.40;;;;;;;;;;5013942;28;20022;-28
2023/04/17 12:00:29;;;;;;;8.88;5.05;;;;;;;;;;4996772;28;20028;-29
2023/04/17 12:02:56;;;;;;;7.72;5.10;;;;;;;;;;5014090;28;20050;-23
2023/04/17 12:05:24;;;;;;;16.10;5.43;;;;;;;;;;4996968;28;20417;-27
2023/04/17 12:08:00;;;;;;;11.60;5.65;;;;;;;;;;5014178;28;20026;-27
2023/04/17 12:10:39;;;;;;;13.02;5.20;;;;;;;;;;5014212;28;20041;-25
2023/04/17 12:13:05;;;;;;;11.13;5.53;;;;;;;;;;5013944;28;20030;-26
2023/04/17 12:15:32;;;;;;;11.95;4.95;;;;;;;;;;5014251;28;20116;-26
2023/04/17 12:17:58;;;;;;;7.32;5.40;;;;;;;;;;5013964;28;20357;-26
2023/04/17 12:20:24;;;;;;;9.25;5.70;;;;;;;;;;5013960;28;20026;-28
2023/04/17 12:22:50;;;;;;;8.07;4.78;;;;;;;;;;5013840;28;20033;-27
2023/04/17 12:25:16;;;;;;;8.48;5.53;;;;;;;;;;5013934;28;20093;-29
2023/04/17 12:27:43;;;;;;;8.63;5.57;;;;;;;;;;5014185;28;20033;-26
2023/04/17 12:30:09;;;;;;;14.55;5.60;;;;;;;;;;5013283;28;20461;-26
2023/04/17 12:32:36;;;;;;;11.45;5.93;;;;;;;;;;5014085;28;20146;-27
2023/04/17 12:35:03;;;;;;;7.72;5.07;;;;;;;;;;5018307;28;20030;-24
2023/04/17 12:37:29;;;;;;;13.68;5.25;;;;;;;;;;5017252;28;20057;-25
2023/04/17 12:39:55;;;;;;;11.40;5.40;;;;;;;;;;5017202;28;20026;-25
2023/04/17 12:42:21;;;;;;;9.77;5.05;;;;;;;;;;5017132;28;20030;-25
2023/04/17 12:44:47;;;;;;;9.70;5.38;;;;;;;;;;5017414;28;20411;-25
2023/04/17 12:47:14;;;;;;;7.22;5.47;;;;;;;;;;4999877;28;20105;-29
2023/04/17 12:49:40;;;;;;;10.57;5.63;;;;;;;;;;5017006;28;20057;-28
2023/04/17 12:52:06;;;;;;;13.45;4.90;;;;;;;;;;5017291;28;20413;-28
2023/04/17 12:54:32;;;;;;;10.60;5.13;;;;;;;;;;5017160;28;20083;-25
2023/04/17 12:56:58;;;;;;;9.57;5.53;;;;;;;;;;4999700;28;20295;-27
2023/04/17 12:59:25;;;;;;;7.65;5.95;;;;;;;;;;5017070;28;20353;-24
2023/04/17 13:01:51;;;;;;;8.27;5.68;;;;;;;;;;4999667;28;20413;-23
2023/04/17 13:04:17;;;;;;;7.45;5.68;;;;;;;;;;5017575;28;20046;-24
2023/04/17 13:06:43;;;;;;;12.57;6.75;;;;;;;;;;5017116;28;20026;-28
2023/04/17 13:09:09;;;;;;;7.20;6.03;;;;;;;;;;5016910;28;20033;-27
2023/04/17 13:11:35;;;;;;;9.77;5.65;;;;;;;;;;5017062;28;20030;-27
2023/04/17 13:14:02;;;;;;;7.90;5.38;;;;;;;;;;5017066;28;20357;-28
2023/04/17 13:16:28;;;;;;;15.07;6.28;;;;;;;;;;5016743;28;20460;-25
2023/04/17 13:18:54;;;;;;;12.57;6.78;;;;;;;;;;5016635;28;20114;-28
2023/04/17 13:21:20;;;;;;;19.95;5.50;;;;;;;;;;5016654;28;20049;-29
2023/04/17 13:23:46;;;;;;;10.32;5.30;;;;;;;;;;5016659;28;20022;-25
2023/04/17 13:26:13;;;;;;;7.03;6.05;;;;;;;;;;5016654;28;20033;-27
2023/04/17 13:28:39;;;;;;;18.08;6.55;;;;;;;;;;5016779;28;20093;-29
2023/04/17 13:31:05;;;;;;;8.52;6.03;;;;;;;;;;5016891;28;20100;-25
2023/04/17 13:33:31;;;;;;;9.18;5.07;;;;;;;;;;4999115;28;20037;-28
2023/04/17 13:35:57;;;;;;;11.73;5.53;;;;;;;;;;5016636;28;20018;-26
2023/04/17 13:38:23;;;;;;;15.88;5.78;;;;;;;;;;5017156;28;20030;-26
2023/04/17 13:40:50;;;;;;;13.23;5.70;;;;;;;;;;5016343;28;20033;-25
2023/04/17 13:43:16;;;;;;;9.38;5.80;;;;;;;;;;5016358;28;20092;-26
2023/04/17 13:45:42;;;;;;;10.90;5.13;;;;;;;;;;4998269;28;20041;-24
2023/04/17 13:48:08;;;;;;;14.10;6.22;;;;;;;;;;4998820;28;20025;-25
2023/04/17 13:50:34;;;;;;;42.25;11.20;;;;;;;;;;5016179;28;20022;-26
2023/04/17 13:53:00;;;;;;;13.43;7.25;;;;;;;;;;5016377;28;20038;-26
2023/04/17 13:55:27;;;;;;;19.95;6.07;;;;;;;;;;5015986;28;20461;-28
2023/04/17 13:57:53;;;;;;;13.88;7.05;;;;;;;;;;5015948;28;20034;-27
2023/04/17 14:00:20;;;;;;;18.77;6.28;;;;;;;;;;5015878;28;20064;-28
2023/04/17 14:02:47;;;;;;;15.40;7.25;;;;;;;;;;5015822;28;20065;-25
2023/04/17 14:05:13;;;;;;;12.50;5.90;;;;;;;;;;5015838;28;20515;-26
2023/04/17 14:07:39;;;;;;;22.40;6.07;;;;;;;;;;5015743;28;20080;-28
2023/04/17 14:10:05;;;;;;;10.45;5.93;;;;;;;;;;5015703;28;20022;-24
2023/04/17 14:12:32;;;;;;;8.60;5.55;;;;;;;;;;5016429;28;20326;-27
2023/04/17 14:14:58;;;;;;;11.63;6.60;;;;;;;;;;5015812;28;20457;-31
2023/04/17 14:17:24;;;;;;;11.07;5.80;;;;;;;;;;5015781;28;20072;-26
2023/04/17 14:19:51;;;;;;;12.52;7.00;;;;;;;;;;5016025;28;20022;-26
2023/04/17 14:22:17;;;;;;;7.13;5.82;;;;;;;;;;5015934;28;20025;-26
2023/04/17 14:24:43;;;;;;;12.40;7.25;;;;;;;;;;5015692;28;20033;-28
2023/04/17 14:27:09;;;;;;;14.25;5.75;;;;;;;;;;5015745;28;20409;-28
2023/04/17 14:29:35;;;;;;;19.73;6.53;;;;;;;;;;5015418;28;20112;-27
2023/04/17 14:32:01;;;;;;;14.75;5.30;;;;;;;;;;5015574;28;20101;-26
2023/04/17 14:34:28;;;;;;;12.93;5.57;;;;;;;;;;5015327;28;20527;-28
2023/04/17 14:36:54;;;;;;;12.68;6.10;;;;;;;;;;5015277;28;20385;-27
2023/04/17 14:39:20;;;;;;;13.57;6.20;;;;;;;;;;4997949;28;20441;-25
2023/04/17 14:41:46;;;;;;;12.55;5.30;;;;;;;;;;5015253;28;20028;-23